x

Cape Elizabeth- 45nm Nw Of Aberdeen, Wa (46041) Wave Buoy

7:50 - Sat 13th Feb 2016 All times are PST. -8 hours from GMT.

  • Sig Wave height 11.2ft
  • Swell Direction
  • Peak Period 14s
  • Average Period 8s
  • Wind
    16mph, 20mph gusts
  • Sea Temp 51°f
  • Ar Temp 50°f
  • Sea Pressure 1023.3mb
  • Cape Elizabeth- 45nm Nw Of Aberdeen, Wa
  • Cape Elizabeth- 45nm Nw Of Aberdeen, Wa

More Historic Weather Station data

Upgrade to MSW Pro to gain access to the past 30 days of data for over 8000 Wavebouys and Weather Stations around the globe.

Join Pro

Comparision Forecast

View Surf forecast
   
Sáb 02/13 7:50 11ft 14s 8s 16 20 mph 1023.3mb 51f 50f
6:50 11ft 16s 8s 13 18 mph 1023.3mb 51f 50f
5:50 12ft 16s 8s 11 16 mph 1023.9mb 51f 50f
4:50 11ft 16s 8s 11 16 mph 1023.7mb 51f 50f
3:50 12ft 16s 8s 18 20 mph 1023.2mb 52f 50f
2:50 12ft 16s 8s 20 25 mph 1022.8mb 52f 50f
1:50 12ft 13s 8s 25 29 mph 1021.9mb 52f 50f
12:50 11.5ft 16s 8s 22 27 mph 1021.4mb 52f 50f
Sex 02/12 11:50 10ft 15s 8s 22 27 mph 1021mb 52f 50f
10:50 11ft 15s 8s 25 29 mph 1020.2mb 52f 52f
9:50 11ft 15s 9s 20 25 mph 1020.4mb 52f 51f
8:50 10.5ft 14s 9s 20 25 mph 1020.2mb 52f 51f
7:50 10.5ft 14s 9s 16 20 mph 1020.9mb 52f 51f
6:50 11.5ft 15s 9s 16 18 mph 1020.8mb 52f 51f
5:50 11.5ft 15s 9s 13 16 mph 1020.3mb 52f 51f
4:50 11.5ft 16s 9s 13 16 mph 1020mb 52f 52f
3:50 12ft 12s 9s 16 18 mph 1019.9mb 52f 52f
2:50 13ft 16s 9s 16 18 mph 1019.6mb 52f 52f
1:50 12.5ft 16s 9s 13 18 mph 1019.3mb 52f 52f
12:50 12ft 17s 9s 13 16 mph 1019.3mb 52f 52f
11:50 12ft 17s 9s 13 16 mph 1019.7mb 52f 52f
10:50 13.5ft 17s 10s 13 16 mph 1019.7mb 52f 52f
9:50 13ft 17s 9s 13 16 mph 1018.8mb 52f 52f
8:50 12.5ft 17s 9s 11 13 mph 1018.2mb 52f 52f
7:50 14ft 17s 10s 16 20 mph 1017.7mb 52f 52f
6:50 13ft 17s 9s 16 20 mph 1016.7mb 52f 52f
5:50 13ft 17s 9s 18 22 mph 1016.6mb 52f 52f
4:50 12ft 17s 9s 18 20 mph 1016.4mb 51f 52f
3:50 11.5ft 17s 9s 20 22 mph 1016.4mb 51f 52f
2:50 10ft 17s 8s 18 22 mph 1016.6mb 51f 53f
1:50 10ft 16s 8s 20 25 mph 1016.4mb 52f 52f
12:50 12ft 16s 9s 18 22 mph 1016.3mb 52f 53f
Qui 02/11 11:50 13ft 16s 9s 18 22 mph 1016.6mb 51f 53f
10:50 11ft 17s 8s 20 22 mph 1016.6mb 51f 52f
9:50 12.5ft 17s 9s 20 25 mph 1016.4mb 51f 53f
8:50 12ft 17s 9s 20 25 mph 1016.3mb 51f 53f
7:50 11ft 19s 9s 20 25 mph 1016.6mb 51f 53f
6:50 12.5ft 13s 9s 22 27 mph 1016.5mb 51f 52f
5:50 11ft 17s 10s 20 27 mph 1016.6mb 51f 52f
4:50 11.5ft 19s 10s 20 25 mph 1016.5mb 51f 52f
3:50 10ft 19s 9s 18 22 mph 1016.5mb 51f 51f
2:50 12ft 19s 10s 22 27 mph 1016.5mb 51f 51f
1:50 12ft 19s 10s 22 27 mph 1016.9mb 51f 52f
12:50 10ft 19s 8s 22 27 mph 1017.5mb 51f 52f
11:50 10ft 19s 8s 25 29 mph 1017.4mb 51f 53f
10:50 10ft 19s 8s 22 27 mph 1017.5mb 51f 53f
9:50 8.5ft 19s 8s 20 25 mph 1017.7mb 51f 53f
8:50 9ft 19s 8s 20 25 mph 1017.8mb 51f 52f
7:50 9.5ft 19s 9s 16 22 mph 1018.4mb 51f 51f
6:50 10.5ft 19s 9s 16 20 mph 1019.1mb 51f 51f
5:50 9ft 19s 8s 18 22 mph 1019.9mb 51f 52f
4:50 8.5ft 21s 8s 13 16 mph 1020.5mb 51f 51f
3:50 8.5ft 21s 8s 9 13 mph 1020.9mb 51f 50f
2:50 9ft 11s 8s 13 18 mph 1021.5mb 51f 50f
1:50 9ft 11s 8s 13 16 mph 1021.5mb 51f 50f
12:50 9ft 21s 8s 16 18 mph 1022.7mb 51f 50f
Qua 02/10 11:50 8.5ft 10s 8s 13 16 mph 1023.7mb 51f 50f
10:50 8ft 11s 8s 11 16 mph 1024.2mb 52f 50f
9:50 7.5ft 11s 7s 9 11 mph 1024.2mb 52f 51f
8:50 7.5ft 11s 7s 7 9 mph 1024.8mb 52f 51f
7:50 8ft 11s 7s 2 4 mph 1024.9mb 52f 51f
6:50 7ft 8s 7s 4 7 mph 1024.9mb 52f 52f
5:50 8ft 8s 7s 7
mph
1025mb 52f 52f
4:50 8ft 11s 7s 9
mph
1024.4mb 52f 52f
3:50 8.5ft 7s 6s 13 16 mph 1023.3mb 52f 53f
2:50 8.5ft 11s 6s 16 18 mph 1022.5mb 52f 53f
1:50 8ft 11s 6s 18 20 mph 1021.5mb 52f 53f
12:50 8ft 10s 6s 20 27 mph 1021.2mb 52f 52f
11:50 7.5ft 10s 6s 22 27 mph 1020.9mb 52f 53f
10:50 7ft 11s 6s 25 29 mph 1019.9mb 52f 52f
9:50 6ft 10s 6s 20 27 mph 1019.8mb 52f 52f
8:50 5.5ft 10s 6s 18 20 mph 1019.1mb 52f 52f
7:50 5.5ft 11s 6s 16 18 mph 1018.6mb 52f 51f
6:50 6ft 11s 7s 18 22 mph 1018.1mb 52f 51f
5:50 5.5ft 11s 7s 16 20 mph 1017.8mb 52f 51f
4:50 5.5ft 12s 7s 18 20 mph 1017.7mb 52f 51f
3:50 5ft 11s 7s 16
mph
1017.6mb 52f 51f
2:50 5.5ft 12s 8s 11 13 mph 1017.6mb 52f 51f
1:50 5.5ft 11s 8s 11 13 mph 1018.1mb 52f 52f
12:50 5ft 11s 7s 9 11 mph 1019mb 52f 52f
Ter 02/09 11:50 5ft 11s 7s 9
mph
1019.2mb 52f 52f
10:50 6ft 12s 8s 11 13 mph 1019mb 52f 52f
9:50 5.5ft 11s 8s 9 11 mph 1018.7mb 52f 52f
8:50 6ft 11s 9s 9 11 mph 1018.8mb 52f 52f
7:50 6ft 13s 9s 7 9 mph 1018.7mb 52f 52f
6:50 6.5ft 11s 9s 7 9 mph 1018.7mb 52f 53f
5:50 6.5ft 11s 9s 13 16 mph 1018.8mb 52f 55f